sensor_id;sensor_type;location;lat;lon;timestamp;pressure;altitude;pressure_sealevel;temperature;humidity
78170;BME280;67412;49.892;14.490;2024-03-08T00:01:13;97552.84;;;1.03;100.00
78170;BME280;67412;49.892;14.490;2024-03-08T00:03:39;97549.63;;;1.08;100.00
78170;BME280;67412;49.892;14.490;2024-03-08T00:06:05;97550.69;;;1.16;100.00
78170;BME280;67412;49.892;14.490;2024-03-08T00:08:31;97545.66;;;1.18;100.00
78170;BME280;67412;49.892;14.490;2024-03-08T00:10:56;97539.81;;;1.20;100.00
78170;BME280;67412;49.892;14.490;2024-03-08T00:13:21;97538.97;;;1.20;100.00
78170;BME280;67412;49.892;14.490;2024-03-08T00:15:47;97539.94;;;1.25;100.00
78170;BME280;67412;49.892;14.490;2024-03-08T00:18:12;97540.06;;;1.29;100.00
78170;BME280;67412;49.892;14.490;2024-03-08T00:20:37;97538.25;;;1.25;100.00
78170;BME280;67412;49.892;14.490;2024-03-08T00:23:03;97533.28;;;1.28;100.00
78170;BME280;67412;49.892;14.490;2024-03-08T00:25:28;97541.72;;;1.27;100.00
78170;BME280;67412;49.892;14.490;2024-03-08T00:27:54;97537.53;;;1.29;100.00
78170;BME280;67412;49.892;14.490;2024-03-08T00:30:22;97531.53;;;1.26;100.00
78170;BME280;67412;49.892;14.490;2024-03-08T00:32:48;97532.53;;;1.31;100.00
78170;BME280;67412;49.892;14.490;2024-03-08T00:35:14;97525.88;;;1.36;100.00
78170;BME280;67412;49.892;14.490;2024-03-08T00:37:40;97527.47;;;1.31;100.00
78170;BME280;67412;49.892;14.490;2024-03-08T00:40:07;97524.09;;;1.32;100.00
78170;BME280;67412;49.892;14.490;2024-03-08T00:42:34;97528.19;;;1.27;100.00
78170;BME280;67412;49.892;14.490;2024-03-08T00:44:59;97521.59;;;1.33;100.00
78170;BME280;67412;49.892;14.490;2024-03-08T00:47:25;97522.47;;;1.34;100.00
78170;BME280;67412;49.892;14.490;2024-03-08T00:49:50;97526.81;;;1.39;100.00
78170;BME280;67412;49.892;14.490;2024-03-08T00:52:16;97521.00;;;1.43;100.00
78170;BME280;67412;49.892;14.490;2024-03-08T00:54:43;97526.19;;;1.48;100.00
78170;BME280;67412;49.892;14.490;2024-03-08T00:57:08;97522.78;;;1.48;100.00
78170;BME280;67412;49.892;14.490;2024-03-08T00:59:34;97517.72;;;1.46;100.00
78170;BME280;67412;49.892;14.490;2024-03-08T01:02:00;97520.13;;;1.41;100.00
78170;BME280;67412;49.892;14.490;2024-03-08T01:04:26;97514.34;;;1.47;100.00
78170;BME280;67412;49.892;14.490;2024-03-08T01:06:54;97511.81;;;1.47;100.00
78170;BME280;67412;49.892;14.490;2024-03-08T01:09:21;97510.19;;;1.49;100.00
78170;BME280;67412;49.892;14.490;2024-03-08T01:11:47;97511.06;;;1.51;100.00
78170;BME280;67412;49.892;14.490;2024-03-08T01:14:12;97508.41;;;1.46;100.00
78170;BME280;67412;49.892;14.490;2024-03-08T01:16:37;97512.72;;;1.51;100.00
78170;BME280;67412;49.892;14.490;2024-03-08T01:19:03;97495.88;;;1.51;100.00
78170;BME280;67412;49.892;14.490;2024-03-08T01:21:28;97509.31;;;1.49;100.00
78170;BME280;67412;49.892;14.490;2024-03-08T01:23:54;97504.38;;;1.53;100.00
78170;BME280;67412;49.892;14.490;2024-03-08T01:26:19;97501.84;;;1.53;100.00
78170;BME280;67412;49.892;14.490;2024-03-08T01:28:44;97497.66;;;1.54;100.00
78170;BME280;67412;49.892;14.490;2024-03-08T01:31:10;97500.13;;;1.52;100.00
78170;BME280;67412;49.892;14.490;2024-03-08T01:33:35;97499.38;;;1.56;100.00
78170;BME280;67412;49.892;14.490;2024-03-08T01:36:00;97496.88;;;1.58;100.00
78170;BME280;67412;49.892;14.490;2024-03-08T01:38:26;97490.06;;;1.55;100.00
78170;BME280;67412;49.892;14.490;2024-03-08T01:40:51;97498.56;;;1.57;100.00
78170;BME280;67412;49.892;14.490;2024-03-08T01:43:24;97490.06;;;1.54;100.00
78170;BME280;67412;49.892;14.490;2024-03-08T01:45:52;97483.34;;;1.56;100.00
78170;BME280;67412;49.892;14.490;2024-03-08T01:48:18;97485.00;;;1.54;100.00
78170;BME280;67412;49.892;14.490;2024-03-08T01:50:45;97487.59;;;1.58;100.00
78170;BME280;67412;49.892;14.490;2024-03-08T01:53:11;97483.47;;;1.62;100.00
78170;BME280;67412;49.892;14.490;2024-03-08T01:55:40;97481.78;;;1.61;100.00
78170;BME280;67412;49.892;14.490;2024-03-08T01:58:09;97480.91;;;1.60;100.00
78170;BME280;67412;49.892;14.490;2024-03-08T02:00:35;97469.03;;;1.58;100.00
78170;BME280;67412;49.892;14.490;2024-03-08T02:03:02;97469.06;;;1.59;100.00
78170;BME280;67412;49.892;14.490;2024-03-08T02:05:27;97466.59;;;1.61;100.00
78170;BME280;67412;49.892;14.490;2024-03-08T02:07:53;97463.09;;;1.56;100.00
78170;BME280;67412;49.892;14.490;2024-03-08T02:10:19;97464.00;;;1.59;100.00
78170;BME280;67412;49.892;14.490;2024-03-08T02:12:46;97465.72;;;1.60;100.00
78170;BME280;67412;49.892;14.490;2024-03-08T02:15:11;97463.91;;;1.55;100.00
78170;BME280;67412;49.892;14.490;2024-03-08T02:17:37;97460.50;;;1.54;100.00
78170;BME280;67412;49.892;14.490;2024-03-08T02:20:03;97467.41;;;1.60;100.00
78170;BME280;67412;49.892;14.490;2024-03-08T02:22:30;97464.81;;;1.57;100.00
78170;BME280;67412;49.892;14.490;2024-03-08T02:24:56;97463.09;;;1.56;100.00
78170;BME280;67412;49.892;14.490;2024-03-08T02:27:26;97457.97;;;1.54;100.00
78170;BME280;67412;49.892;14.490;2024-03-08T02:29:54;97461.41;;;1.56;100.00
78170;BME280;67412;49.892;14.490;2024-03-08T02:32:21;97455.50;;;1.56;100.00
78170;BME280;67412;49.892;14.490;2024-03-08T02:34:47;97452.84;;;1.51;100.00
78170;BME280;67412;49.892;14.490;2024-03-08T02:37:13;97453.63;;;1.49;100.00
78170;BME280;67412;49.892;14.490;2024-03-08T02:39:38;97448.63;;;1.52;100.00
78170;BME280;67412;49.892;14.490;2024-03-08T02:42:03;97462.28;;;1.58;100.00
78170;BME280;67412;49.892;14.490;2024-03-08T02:44:29;97453.94;;;1.62;100.00
78170;BME280;67412;49.892;14.490;2024-03-08T02:46:54;97456.28;;;1.53;100.00
78170;BME280;67412;49.892;14.490;2024-03-08T02:49:20;97442.97;;;1.62;100.00
78170;BME280;67412;49.892;14.490;2024-03-08T02:51:46;97448.13;;;1.65;100.00
78170;BME280;67412;49.892;14.490;2024-03-08T02:54:11;97445.50;;;1.62;100.00
78170;BME280;67412;49.892;14.490;2024-03-08T02:56:37;97437.06;;;1.61;100.00
78170;BME280;67412;49.892;14.490;2024-03-08T02:59:02;97437.78;;;1.56;100.00
78170;BME280;67412;49.892;14.490;2024-03-08T03:01:28;97432.78;;;1.59;100.00
78170;BME280;67412;49.892;14.490;2024-03-08T03:03:53;97432.66;;;1.54;100.00
78170;BME280;67412;49.892;14.490;2024-03-08T03:06:18;97434.44;;;1.57;100.00
78170;BME280;67412;49.892;14.490;2024-03-08T03:08:46;97431.94;;;1.60;100.00
78170;BME280;67412;49.892;14.490;2024-03-08T03:11:12;97428.50;;;1.58;100.00
78170;BME280;67412;49.892;14.490;2024-03-08T03:13:39;97426.03;;;1.59;100.00
78170;BME280;67412;49.892;14.490;2024-03-08T03:16:04;97428.50;;;1.56;100.00
78170;BME280;67412;49.892;14.490;2024-03-08T03:18:30;97423.34;;;1.52;100.00
78170;BME280;67412;49.892;14.490;2024-03-08T03:20:58;97419.94;;;1.51;100.00
78170;BME280;67412;49.892;14.490;2024-03-08T03:23:23;97418.25;;;1.52;100.00
78170;BME280;67412;49.892;14.490;2024-03-08T03:25:48;97416.59;;;1.52;100.00
78170;BME280;67412;49.892;14.490;2024-03-08T03:28:14;97419.81;;;1.45;100.00
78170;BME280;67412;49.892;14.490;2024-03-08T03:30:44;97412.22;;;1.45;100.00
78170;BME280;67412;49.892;14.490;2024-03-08T03:33:11;97406.13;;;1.37;100.00
78170;BME280;67412;49.892;14.490;2024-03-08T03:35:37;97400.19;;;1.35;100.00
78170;BME280;67412;49.892;14.490;2024-03-08T03:38:03;97408.69;;;1.38;100.00
78170;BME280;67412;49.892;14.490;2024-03-08T03:40:35;97405.09;;;1.29;100.00
78170;BME280;67412;49.892;14.490;2024-03-08T03:43:01;97408.25;;;1.19;100.00
78170;BME280;67412;49.892;14.490;2024-03-08T03:45:26;97406.41;;;1.13;100.00
78170;BME280;67412;49.892;14.490;2024-03-08T03:47:52;97408.00;;;1.08;100.00
78170;BME280;67412;49.892;14.490;2024-03-08T03:50:18;97399.41;;;1.03;100.00
78170;BME280;67412;49.892;14.490;2024-03-08T03:52:47;97406.81;;;0.95;100.00
78170;BME280;67412;49.892;14.490;2024-03-08T03:55:13;97408.28;;;0.86;100.00
78170;BME280;67412;49.892;14.490;2024-03-08T03:57:39;97405.47;;;0.75;100.00
78170;BME280;67412;49.892;14.490;2024-03-08T04:00:05;97409.44;;;0.66;100.00
78170;BME280;67412;49.892;14.490;2024-03-08T04:02:31;97405.91;;;0.59;100.00
78170;BME280;67412;49.892;14.490;2024-03-08T04:04:56;97404.06;;;0.52;100.00
78170;BME280;67412;49.892;14.490;2024-03-08T04:07:22;97409.84;;;0.49;100.00
78170;BME280;67412;49.892;14.490;2024-03-08T04:09:47;97409.63;;;0.40;100.00
78170;BME280;67412;49.892;14.490;2024-03-08T04:12:12;97408.53;;;0.31;100.00
78170;BME280;67412;49.892;14.490;2024-03-08T04:14:42;97409.44;;;0.34;100.00
78170;BME280;67412;49.892;14.490;2024-03-08T04:17:07;97411.78;;;0.27;100.00
78170;BME280;67412;49.892;14.490;2024-03-08T04:19:34;97412.44;;;0.20;100.00
78170;BME280;67412;49.892;14.490;2024-03-08T04:22:00;97411.50;;;0.16;100.00
78170;BME280;67412;49.892;14.490;2024-03-08T04:24:26;97407.16;;;0.12;100.00
78170;BME280;67412;49.892;14.490;2024-03-08T04:26:51;97412.19;;;0.11;100.00
78170;BME280;67412;49.892;14.490;2024-03-08T04:29:17;97413.88;;;0.12;100.00
78170;BME280;67412;49.892;14.490;2024-03-08T04:31:42;97408.63;;;0.04;100.00
78170;BME280;67412;49.892;14.490;2024-03-08T04:34:07;97406.78;;;-0.02;100.00
78170;BME280;67412;49.892;14.490;2024-03-08T04:36:33;97403.50;;;0.01;100.00
78170;BME280;67412;49.892;14.490;2024-03-08T04:38:59;97400.94;;;-0.01;100.00
78170;BME280;67412;49.892;14.490;2024-03-08T04:41:24;97403.28;;;-0.07;100.00
78170;BME280;67412;49.892;14.490;2024-03-08T04:43:50;97397.13;;;-0.16;100.00
78170;BME280;67412;49.892;14.490;2024-03-08T04:46:15;97398.63;;;-0.23;100.00
78170;BME280;67412;49.892;14.490;2024-03-08T04:48:41;97391.78;;;-0.27;100.00
78170;BME280;67412;49.892;14.490;2024-03-08T04:51:08;97391.13;;;-0.20;100.00
78170;BME280;67412;49.892;14.490;2024-03-08T04:53:34;97390.19;;;-0.23;100.00
78170;BME280;67412;49.892;14.490;2024-03-08T04:56:00;97396.81;;;-0.27;100.00
78170;BME280;67412;49.892;14.490;2024-03-08T04:58:25;97397.94;;;-0.17;100.00
78170;BME280;67412;49.892;14.490;2024-03-08T05:00:51;97396.97;;;-0.21;100.00
78170;BME280;67412;49.892;14.490;2024-03-08T05:03:16;97397.69;;;-0.26;100.00
78170;BME280;67412;49.892;14.490;2024-03-08T05:05:41;97396.63;;;-0.33;100.00
78170;BME280;67412;49.892;14.490;2024-03-08T05:08:07;97398.91;;;-0.40;100.00
78170;BME280;67412;49.892;14.490;2024-03-08T05:10:32;97398.63;;;-0.51;100.00
78170;BME280;67412;49.892;14.490;2024-03-08T05:12:58;97401.69;;;-0.61;100.00
78170;BME280;67412;49.892;14.490;2024-03-08T05:15:23;97409.88;;;-0.68;100.00
78170;BME280;67412;49.892;14.490;2024-03-08T05:17:48;97408.69;;;-0.79;100.00
78170;BME280;67412;49.892;14.490;2024-03-08T05:20:15;97407.91;;;-0.77;100.00
78170;BME280;67412;49.892;14.490;2024-03-08T05:22:42;97409.41;;;-0.83;100.00
78170;BME280;67412;49.892;14.490;2024-03-08T05:25:08;97410.97;;;-0.87;100.00
78170;BME280;67412;49.892;14.490;2024-03-08T05:27:35;97404.69;;;-1.00;100.00
78170;BME280;67412;49.892;14.490;2024-03-08T05:30:02;97414.66;;;-1.03;100.00
78170;BME280;67412;49.892;14.490;2024-03-08T05:32:29;97407.00;;;-1.06;100.00
78170;BME280;67412;49.892;14.490;2024-03-08T05:34:54;97412.75;;;-1.10;100.00
78170;BME280;67412;49.892;14.490;2024-03-08T05:37:19;97413.41;;;-1.15;100.00
78170;BME280;67412;49.892;14.490;2024-03-08T05:39:45;97419.22;;;-1.18;100.00
78170;BME280;67412;49.892;14.490;2024-03-08T05:42:11;97417.22;;;-1.28;100.00
78170;BME280;67412;49.892;14.490;2024-03-08T05:44:36;97418.44;;;-1.15;100.00
78170;BME280;67412;49.892;14.490;2024-03-08T05:47:01;97417.66;;;-1.14;100.00
78170;BME280;67412;49.892;14.490;2024-03-08T05:49:27;97407.63;;;-1.13;100.00
78170;BME280;67412;49.892;14.490;2024-03-08T05:51:52;97406.28;;;-1.28;100.00
78170;BME280;67412;49.892;14.490;2024-03-08T05:54:19;97410.69;;;-1.47;100.00
78170;BME280;67412;49.892;14.490;2024-03-08T05:56:47;97423.34;;;-1.45;100.00
78170;BME280;67412;49.892;14.490;2024-03-08T05:59:12;97421.03;;;-1.39;100.00
78170;BME280;67412;49.892;14.490;2024-03-08T06:01:38;97417.44;;;-1.46;100.00
78170;BME280;67412;49.892;14.490;2024-03-08T06:04:05;97421.75;;;-1.43;100.00
78170;BME280;67412;49.892;14.490;2024-03-08T06:06:31;97415.16;;;-1.38;100.00
78170;BME280;67412;49.892;14.490;2024-03-08T06:08:56;97414.53;;;-1.32;100.00
78170;BME280;67412;49.892;14.490;2024-03-08T06:11:23;97425.50;;;-1.30;100.00
78170;BME280;67412;49.892;14.490;2024-03-08T06:13:52;97423.13;;;-1.26;100.00
78170;BME280;67412;49.892;14.490;2024-03-08T06:16:17;97419.22;;;-1.18;100.00
78170;BME280;67412;49.892;14.490;2024-03-08T06:18:42;97414.19;;;-1.16;100.00
78170;BME280;67412;49.892;14.490;2024-03-08T06:21:08;97412.44;;;-1.19;100.00
78170;BME280;67412;49.892;14.490;2024-03-08T06:23:41;97417.66;;;-1.14;100.00
78170;BME280;67412;49.892;14.490;2024-03-08T06:26:09;97414.56;;;-1.06;100.00
78170;BME280;67412;49.892;14.490;2024-03-08T06:28:34;97421.00;;;-0.88;100.00
78170;BME280;67412;49.892;14.490;2024-03-08T06:31:00;97417.63;;;-0.89;100.00
78170;BME280;67412;49.892;14.490;2024-03-08T06:33:26;97413.81;;;-0.76;100.00
78170;BME280;67412;49.892;14.490;2024-03-08T06:35:56;97421.88;;;-0.60;100.00
78170;BME280;67412;49.892;14.490;2024-03-08T06:38:25;97421.31;;;-0.51;100.00
78170;BME280;67412;49.892;14.490;2024-03-08T06:40:50;97413.19;;;-0.41;100.00
78170;BME280;67412;49.892;14.490;2024-03-08T06:43:16;97415.13;;;-0.34;100.00
78170;BME280;67412;49.892;14.490;2024-03-08T06:45:43;97417.91;;;-0.25;100.00
78170;BME280;67412;49.892;14.490;2024-03-08T06:48:16;97414.09;;;-0.11;100.00
78170;BME280;67412;49.892;14.490;2024-03-08T06:50:45;97416.75;;;-0.06;100.00
78170;BME280;67412;49.892;14.490;2024-03-08T06:53:11;97411.34;;;0.12;100.00
78170;BME280;67412;49.892;14.490;2024-03-08T06:55:37;97414.94;;;0.20;100.00
78170;BME280;67412;49.892;14.490;2024-03-08T06:58:02;97400.09;;;0.30;100.00
78170;BME280;67412;49.892;14.490;2024-03-08T07:00:28;97393.63;;;0.40;100.00
78170;BME280;67412;49.892;14.490;2024-03-08T07:02:55;97401.75;;;0.61;100.00
78170;BME280;67412;49.892;14.490;2024-03-08T07:05:20;97393.53;;;0.70;100.00
78170;BME280;67412;49.892;14.490;2024-03-08T07:07:46;97394.94;;;0.91;100.00
78170;BME280;67412;49.892;14.490;2024-03-08T07:10:14;97395.09;;;0.99;100.00
78170;BME280;67412;49.892;14.490;2024-03-08T07:12:43;97394.63;;;1.14;100.00
78170;BME280;67412;49.892;14.490;2024-03-08T07:15:08;97390.66;;;1.25;100.00
78170;BME280;67412;49.892;14.490;2024-03-08T07:17:39;97388.47;;;1.40;100.00
78170;BME280;67412;49.892;14.490;2024-03-08T07:20:05;97390.47;;;1.55;100.00
78170;BME280;67412;49.892;14.490;2024-03-08T07:22:32;97386.44;;;1.61;100.00
78170;BME280;67412;49.892;14.490;2024-03-08T07:24:57;97394.16;;;1.67;100.00
78170;BME280;67412;49.892;14.490;2024-03-08T07:27:43;97384.25;;;1.78;100.00
78170;BME280;67412;49.892;14.490;2024-03-08T07:30:09;97380.94;;;1.82;100.00
78170;BME280;67412;49.892;14.490;2024-03-08T07:32:37;97377.69;;;1.87;100.00
78170;BME280;67412;49.892;14.490;2024-03-08T07:35:03;97376.97;;;1.93;100.00
78170;BME280;67412;49.892;14.490;2024-03-08T07:37:29;97380.56;;;2.04;100.00
78170;BME280;67412;49.892;14.490;2024-03-08T07:39:54;97381.50;;;2.09;100.00
78170;BME280;67412;49.892;14.490;2024-03-08T07:42:19;97371.59;;;2.21;100.00
78170;BME280;67412;49.892;14.490;2024-03-08T07:44:46;97374.25;;;2.27;100.00
78170;BME280;67412;49.892;14.490;2024-03-08T07:47:13;97365.97;;;2.36;100.00
78170;BME280;67412;49.892;14.490;2024-03-08T07:49:39;97369.47;;;2.44;100.00
78170;BME280;67412;49.892;14.490;2024-03-08T07:52:04;97367.13;;;2.53;100.00
78170;BME280;67412;49.892;14.490;2024-03-08T07:54:32;97371.34;;;2.53;100.00
78170;BME280;67412;49.892;14.490;2024-03-08T07:56:57;97366.41;;;2.60;100.00
78170;BME280;67412;49.892;14.490;2024-03-08T07:59:23;97369.97;;;2.71;100.00
78170;BME280;67412;49.892;14.490;2024-03-08T08:01:48;97359.00;;;2.72;100.00
78170;BME280;67412;49.892;14.490;2024-03-08T08:04:13;97365.94;;;2.81;100.00
78170;BME280;67412;49.892;14.490;2024-03-08T08:06:40;97360.16;;;2.92;100.00
78170;BME280;67412;49.892;14.490;2024-03-08T08:09:08;97357.84;;;3.03;100.00
78170;BME280;67412;49.892;14.490;2024-03-08T08:11:53;97357.09;;;3.12;100.00
78170;BME280;67412;49.892;14.490;2024-03-08T08:14:18;97363.06;;;3.14;100.00
78170;BME280;67412;49.892;14.490;2024-03-08T08:16:46;97353.97;;;3.28;100.00
78170;BME280;67412;49.892;14.490;2024-03-08T08:19:14;97360.09;;;3.40;100.00
78170;BME280;67412;49.892;14.490;2024-03-08T08:21:39;97349.28;;;3.55;100.00
78170;BME280;67412;49.892;14.490;2024-03-08T08:24:05;97351.09;;;3.65;100.00
78170;BME280;67412;49.892;14.490;2024-03-08T08:26:31;97347.81;;;3.71;100.00
78170;BME280;67412;49.892;14.490;2024-03-08T08:28:58;97347.91;;;3.80;100.00
78170;BME280;67412;49.892;14.490;2024-03-08T08:31:23;97337.75;;;3.78;100.00
78170;BME280;67412;49.892;14.490;2024-03-08T08:33:48;97339.47;;;3.82;100.00
78170;BME280;67412;49.892;14.490;2024-03-08T08:36:14;97337.09;;;3.96;100.00
78170;BME280;67412;49.892;14.490;2024-03-08T08:38:40;97341.97;;;3.78;100.00
78170;BME280;67412;49.892;14.490;2024-03-08T08:41:08;97335.31;;;3.90;100.00
78170;BME280;67412;49.892;14.490;2024-03-08T08:43:34;97331.28;;;4.05;100.00
78170;BME280;67412;49.892;14.490;2024-03-08T08:45:59;97331.50;;;4.27;100.00
78170;BME280;67412;49.892;14.490;2024-03-08T08:48:24;97333.41;;;4.45;100.00
78170;BME280;67412;49.892;14.490;2024-03-08T08:50:50;97323.13;;;4.36;100.00
78170;BME280;67412;49.892;14.490;2024-03-08T08:53:17;97328.94;;;4.24;100.00
78170;BME280;67412;49.892;14.490;2024-03-08T08:55:43;97328.28;;;4.42;100.00
78170;BME280;67412;49.892;14.490;2024-03-08T08:58:10;97321.81;;;4.77;100.00
78170;BME280;67412;49.892;14.490;2024-03-08T09:00:36;97326.16;;;4.92;100.00
78170;BME280;67412;49.892;14.490;2024-03-08T09:03:02;97324.69;;;5.17;100.00
78170;BME280;67412;49.892;14.490;2024-03-08T09:05:27;97327.06;;;4.99;100.00
78170;BME280;67412;49.892;14.490;2024-03-08T09:07:52;97326.16;;;4.89;100.00
78170;BME280;67412;49.892;14.490;2024-03-08T09:10:18;97325.81;;;4.51;100.00
78170;BME280;67412;49.892;14.490;2024-03-08T09:12:44;97322.63;;;4.76;100.00
78170;BME280;67412;49.892;14.490;2024-03-08T09:15:10;97320.00;;;4.66;100.00
78170;BME280;67412;49.892;14.490;2024-03-08T09:17:38;97320.06;;;4.73;100.00
78170;BME280;67412;49.892;14.490;2024-03-08T09:20:08;97320.09;;;4.76;100.00
78170;BME280;67412;49.892;14.490;2024-03-08T09:22:35;97323.44;;;4.69;100.00
78170;BME280;67412;49.892;14.490;2024-03-08T09:25:01;97313.13;;;4.54;100.00
78170;BME280;67412;49.892;14.490;2024-03-08T09:27:27;97310.72;;;4.68;100.00
78170;BME280;67412;49.892;14.490;2024-03-08T09:29:54;97309.34;;;5.12;100.00
78170;BME280;67412;49.892;14.490;2024-03-08T09:32:20;97307.06;;;5.56;100.00
78170;BME280;67412;49.892;14.490;2024-03-08T09:34:45;97310.63;;;5.89;100.00
78170;BME280;67412;49.892;14.490;2024-03-08T09:37:10;97303.09;;;6.17;100.00
78170;BME280;67412;49.892;14.490;2024-03-08T09:39:36;97311.63;;;6.35;100.00
78170;BME280;67412;49.892;14.490;2024-03-08T09:42:02;97307.38;;;6.38;100.00
78170;BME280;67412;49.892;14.490;2024-03-08T09:44:27;97307.41;;;6.44;99.44
78170;BME280;67412;49.892;14.490;2024-03-08T09:46:54;97301.47;;;6.65;98.57
78170;BME280;67412;49.892;14.490;2024-03-08T09:49:20;97307.44;;;6.62;97.10
78170;BME280;67412;49.892;14.490;2024-03-08T09:51:46;97299.78;;;6.58;96.02
78170;BME280;67412;49.892;14.490;2024-03-08T09:54:12;97295.50;;;6.61;94.63
78170;BME280;67412;49.892;14.490;2024-03-08T09:56:38;97293.81;;;6.54;100.00
78170;BME280;67412;49.892;14.490;2024-03-08T09:59:06;97299.78;;;6.62;97.84
78170;BME280;67412;49.892;14.490;2024-03-08T10:01:50;97295.50;;;6.72;95.30
78170;BME280;67412;49.892;14.490;2024-03-08T10:04:17;97287.88;;;6.66;96.66
78170;BME280;67412;49.892;14.490;2024-03-08T10:06:43;97294.69;;;6.59;96.21
78170;BME280;67412;49.892;14.490;2024-03-08T10:09:13;97277.63;;;6.67;97.81
78170;BME280;67412;49.892;14.490;2024-03-08T10:11:40;97281.06;;;6.78;96.64
78170;BME280;67412;49.892;14.490;2024-03-08T10:14:05;97290.41;;;6.95;95.00
78170;BME280;67412;49.892;14.490;2024-03-08T10:16:33;97281.06;;;7.12;94.28
78170;BME280;67412;49.892;14.490;2024-03-08T10:18:59;97285.28;;;7.19;92.17
78170;BME280;67412;49.892;14.490;2024-03-08T10:21:25;97281.91;;;6.62;94.20
78170;BME280;67412;49.892;14.490;2024-03-08T10:23:51;97275.94;;;6.62;99.47
78170;BME280;67412;49.892;14.490;2024-03-08T10:26:16;97281.06;;;6.88;96.20
78170;BME280;67412;49.892;14.490;2024-03-08T10:28:50;97277.59;;;7.20;97.10
78170;BME280;67412;49.892;14.490;2024-03-08T10:31:16;97281.81;;;7.49;95.40
78170;BME280;67412;49.892;14.490;2024-03-08T10:33:42;97269.00;;;7.64;91.50
78170;BME280;67412;49.892;14.490;2024-03-08T10:36:08;97264.75;;;7.55;94.08
78170;BME280;67412;49.892;14.490;2024-03-08T10:38:37;97266.47;;;7.43;91.87
78170;BME280;67412;49.892;14.490;2024-03-08T10:41:05;97275.06;;;7.14;94.63
78170;BME280;67412;49.892;14.490;2024-03-08T10:43:34;97265.63;;;7.44;94.71
78170;BME280;67412;49.892;14.490;2024-03-08T10:48:58;97257.22;;;7.04;95.05
78170;BME280;67412;49.892;14.490;2024-03-08T10:51:28;97269.97;;;7.22;93.95
78170;BME280;67412;49.892;14.490;2024-03-08T10:53:56;97259.75;;;7.07;94.91
78170;BME280;67412;49.892;14.490;2024-03-08T10:56:22;97253.75;;;7.27;94.17
78170;BME280;67412;49.892;14.490;2024-03-08T10:58:48;97252.81;;;7.57;92.54
78170;BME280;67412;49.892;14.490;2024-03-08T11:01:14;97249.38;;;7.67;93.58
78170;BME280;67412;49.892;14.490;2024-03-08T11:06:09;97245.19;;;7.45;96.01
78170;BME280;67412;49.892;14.490;2024-03-08T11:08:39;97241.84;;;7.29;93.70
78170;BME280;67412;49.892;14.490;2024-03-08T11:11:05;97238.41;;;7.38;93.25
78170;BME280;67412;49.892;14.490;2024-03-08T11:13:42;97240.09;;;7.39;92.06
78170;BME280;67412;49.892;14.490;2024-03-08T11:16:11;97238.34;;;7.50;93.76
78170;BME280;67412;49.892;14.490;2024-03-08T11:18:37;97233.06;;;7.90;92.53
78170;BME280;67412;49.892;14.490;2024-03-08T11:21:12;97220.19;;;8.03;93.14
78170;BME280;67412;49.892;14.490;2024-03-08T11:23:38;97225.22;;;8.18;91.57
78170;BME280;67412;49.892;14.490;2024-03-08T11:26:17;97220.22;;;8.02;89.37
78170;BME280;67412;49.892;14.490;2024-03-08T11:28:43;97218.59;;;7.87;93.45
78170;BME280;67412;49.892;14.490;2024-03-08T11:33:39;97210.16;;;7.71;93.56
78170;BME280;67412;49.892;14.490;2024-03-08T11:36:12;97208.47;;;7.67;93.15
78170;BME280;67412;49.892;14.490;2024-03-08T11:38:44;97203.25;;;7.84;93.53
78170;BME280;67412;49.892;14.490;2024-03-08T11:41:17;97199.16;;;7.53;93.26
78170;BME280;67412;49.892;14.490;2024-03-08T11:43:43;97199.25;;;7.24;94.81
78170;BME280;67412;49.892;14.490;2024-03-08T11:46:09;97191.53;;;7.45;96.49
78170;BME280;67412;49.892;14.490;2024-03-08T11:48:34;97196.50;;;7.72;95.24
78170;BME280;67412;49.892;14.490;2024-03-08T11:51:04;97184.56;;;7.74;98.37
78170;BME280;67412;49.892;14.490;2024-03-08T11:53:30;97184.03;;;8.58;95.39
78170;BME280;67412;49.892;14.490;2024-03-08T11:56:09;97181.28;;;8.74;87.32
78170;BME280;67412;49.892;14.490;2024-03-08T11:58:36;97171.97;;;8.67;87.29
78170;BME280;67412;49.892;14.490;2024-03-08T12:01:08;97180.44;;;8.74;85.89
78170;BME280;67412;49.892;14.490;2024-03-08T12:03:42;97181.06;;;8.97;89.04
78170;BME280;67412;49.892;14.490;2024-03-08T12:06:10;97179.59;;;8.73;84.69
78170;BME280;67412;49.892;14.490;2024-03-08T12:08:36;97173.66;;;8.73;86.96
78170;BME280;67412;49.892;14.490;2024-03-08T12:11:05;97181.94;;;8.96;86.23
78170;BME280;67412;49.892;14.490;2024-03-08T12:13:33;97176.88;;;8.89;83.81
78170;BME280;67412;49.892;14.490;2024-03-08T12:16:02;97175.28;;;8.79;87.03
78170;BME280;67412;49.892;14.490;2024-03-08T12:18:36;97178.97;;;8.50;87.09
78170;BME280;67412;49.892;14.490;2024-03-08T12:21:11;97174.94;;;8.16;88.64
78170;BME280;67412;49.892;14.490;2024-03-08T12:23:38;97174.91;;;8.20;89.23
78170;BME280;67412;49.892;14.490;2024-03-08T12:26:14;97180.03;;;8.20;89.05
78170;BME280;67412;49.892;14.490;2024-03-08T12:28:41;97174.22;;;7.97;91.14
78170;BME280;67412;49.892;14.490;2024-03-08T12:31:10;97176.72;;;7.99;92.10
78170;BME280;67412;49.892;14.490;2024-03-08T12:33:57;97186.22;;;7.82;93.56
78170;BME280;67412;49.892;14.490;2024-03-08T12:36:24;97176.69;;;8.08;89.85
78170;BME280;67412;49.892;14.490;2024-03-08T12:38:49;97169.22;;;7.74;90.05
78170;BME280;67412;49.892;14.490;2024-03-08T12:41:16;97174.44;;;7.52;93.52
78170;BME280;67412;49.892;14.490;2024-03-08T12:43:43;97174.06;;;8.14;94.42
78170;BME280;67412;49.892;14.490;2024-03-08T12:46:22;97168.69;;;8.52;91.16
78170;BME280;67412;49.892;14.490;2024-03-08T12:48:51;97161.44;;;8.96;87.07
78170;BME280;67412;49.892;14.490;2024-03-08T12:51:19;97162.28;;;8.97;87.42
78170;BME280;67412;49.892;14.490;2024-03-08T12:53:45;97154.75;;;8.82;87.89
78170;BME280;67412;49.892;14.490;2024-03-08T12:56:11;97156.72;;;8.55;86.97